Time,TemperatureF,DewpointF,PressureIn,WindDirection,WindDirectionDegrees,WindSpeedMPH,WindSpeedGustMPH,Humidity,HourlyPrecipIn,Conditions,Clouds,dailyrainin,SolarRadiationWatts/m^2,SoftwareType,DateUTC
2013-11-28 00:04:00,21.8,14.8,30.41,NW,310,0.0,0.0,74,0.00,,,0.00,0,Wunderground v.1.15,2013-11-28 06:04:00,
2013-11-28 00:14:00,21.7,14.7,30.41,NW,314,0.0,0.0,74,0.00,,,0.00,0,Wunderground v.1.15,2013-11-28 06:14:00,
2013-11-28 00:24:00,21.9,14.3,30.41,NW,314,0.0,0.0,72,0.00,,,0.00,0,Wunderground v.1.15,2013-11-28 06:24:00,
2013-11-28 00:34:00,21.7,14.1,30.40,NW,315,0.0,1.0,72,0.00,,,0.00,0,Wunderground v.1.15,2013-11-28 06:34:00,
2013-11-28 00:39:00,21.4,14.1,30.40,NW,315,0.0,1.0,73,0.00,,,0.00,0,Wunderground v.1.15,2013-11-28 06:39:00,
2013-11-28 00:49:00,20.9,14.2,30.40,NW,315,0.0,0.0,75,0.00,,,0.00,0,Wunderground v.1.15,2013-11-28 06:49:00,
2013-11-28 00:54:00,20.7,14.6,30.41,NW,315,0.0,0.0,77,0.00,,,0.00,0,Wunderground v.1.15,2013-11-28 06:54:00,
2013-11-28 01:04:00,20.7,15.2,30.41,NNW,332,0.0,0.0,79,0.00,,,0.00,0,Wunderground v.1.15,2013-11-28 07:04:00,
2013-11-28 01:14:00,20.6,14.5,30.41,NNE,32,0.0,0.0,77,0.00,,,0.00,0,Wunderground v.1.15,2013-11-28 07:14:00,
2013-11-28 01:24:00,20.2,15.0,30.42,NNE,32,0.0,0.0,80,0.00,,,0.00,0,Wunderground v.1.15,2013-11-28 07:24:00,
2013-11-28 01:34:00,20.2,15.0,30.42,NNE,32,0.0,0.0,80,0.00,,,0.00,0,Wunderground v.1.15,2013-11-28 07:34:00,
2013-11-28 01:39:00,19.9,15.0,30.42,NNE,32,0.0,0.0,81,0.00,,,0.00,0,Wunderground v.1.15,2013-11-28 07:39:00,
2013-11-28 01:49:00,19.9,14.7,30.42,NNE,31,1.0,1.0,80,0.00,,,0.00,0,Wunderground v.1.15,2013-11-28 07:49:00,
2013-11-28 01:59:00,19.8,14.9,30.42,NNE,31,1.0,1.0,81,0.00,,,0.00,0,Wunderground v.1.15,2013-11-28 07:59:00,
2013-11-28 02:09:00,19.2,14.6,30.43,NNE,31,0.0,0.0,82,0.00,,,0.00,0,Wunderground v.1.15,2013-11-28 08:09:00,
2013-11-28 02:19:00,19.2,14.6,30.43,NNE,31,0.0,0.0,82,0.00,,,0.00,0,Wunderground v.1.15,2013-11-28 08:19:00,
2013-11-28 02:24:00,19.4,15.1,30.43,NNE,31,0.0,0.0,83,0.00,,,0.00,0,Wunderground v.1.15,2013-11-28 08:24:00,
2013-11-28 02:34:00,19.1,14.8,30.44,NNE,31,0.0,0.0,83,0.00,,,0.00,0,Wunderground v.1.15,2013-11-28 08:34:00,
2013-11-28 02:39:00,18.9,14.6,30.44,NNE,31,0.0,0.0,83,0.00,,,0.00,0,Wunderground v.1.15,2013-11-28 08:39:00,
2013-11-28 02:49:00,18.7,14.9,30.44,NNE,31,0.0,0.0,85,0.00,,,0.00,0,Wunderground v.1.15,2013-11-28 08:49:00,
2013-11-28 02:54:00,18.7,14.9,30.44,NNE,31,0.0,0.0,85,0.00,,,0.00,0,Wunderground v.1.15,2013-11-28 08:54:00,
2013-11-28 03:04:00,18.6,15.1,30.44,NNE,31,0.0,0.0,86,0.00,,,0.00,0,Wunderground v.1.15,2013-11-28 09:04:00,
2013-11-28 03:14:00,18.4,14.9,30.44,NNE,31,0.0,0.0,86,0.00,,,0.00,0,Wunderground v.1.15,2013-11-28 09:14:00,
2013-11-28 03:19:00,18.2,14.7,30.44,NNE,31,0.0,0.0,86,0.00,,,0.00,0,Wunderground v.1.15,2013-11-28 09:19:00,
2013-11-28 03:29:00,18.3,15.1,30.44,NNE,31,0.0,0.0,87,0.00,,,0.00,0,Wunderground v.1.15,2013-11-28 09:29:00,
2013-11-28 03:39:00,18.2,14.7,30.43,NNE,31,0.0,0.0,86,0.00,,,0.00,0,Wunderground v.1.15,2013-11-28 09:39:00,
2013-11-28 03:44:00,18.3,14.5,30.44,NNE,31,0.0,0.0,85,0.00,,,0.00,0,Wunderground v.1.15,2013-11-28 09:44:00,
2013-11-28 03:54:00,18.5,14.7,30.44,NNE,31,0.0,0.0,85,0.00,,,0.00,0,Wunderground v.1.15,2013-11-28 09:54:00,
2013-11-28 04:04:00,18.5,15.0,30.44,NNE,31,0.0,0.0,86,0.00,,,0.00,0,Wunderground v.1.15,2013-11-28 10:04:00,
2013-11-28 04:09:00,18.6,15.1,30.44,NNE,31,0.0,0.0,86,0.00,,,0.00,0,Wunderground v.1.15,2013-11-28 10:09:00,
2013-11-28 04:19:00,18.6,15.1,30.44,NNE,31,0.0,0.0,86,0.00,,,0.00,0,Wunderground v.1.15,2013-11-28 10:19:00,
2013-11-28 04:29:00,18.3,14.8,30.44,NNE,31,0.0,0.0,86,0.00,,,0.00,0,Wunderground v.1.15,2013-11-28 10:29:00,
2013-11-28 04:39:00,18.7,15.2,30.44,North,360,0.0,0.0,86,0.00,,,0.00,0,Wunderground v.1.15,2013-11-28 10:39:00,
2013-11-28 04:44:00,18.7,15.2,30.44,North,360,0.0,0.0,86,0.00,,,0.00,0,Wunderground v.1.15,2013-11-28 10:44:00,
2013-11-28 04:54:00,18.4,15.2,30.45,North,360,0.0,0.0,87,0.00,,,0.00,0,Wunderground v.1.15,2013-11-28 10:54:00,
2013-11-28 04:59:00,18.5,15.0,30.45,North,360,0.0,0.0,86,0.00,,,0.00,0,Wunderground v.1.15,2013-11-28 10:59:00,
2013-11-28 05:09:00,18.6,15.1,30.45,North,360,0.0,0.0,86,0.00,,,0.00,0,Wunderground v.1.15,2013-11-28 11:09:00,
2013-11-28 05:19:00,18.1,14.6,30.46,North,360,0.0,0.0,86,0.00,,,0.00,0,Wunderground v.1.15,2013-11-28 11:19:00,
2013-11-28 05:24:00,18.1,14.6,30.46,North,360,0.0,0.0,86,0.00,,,0.00,0,Wunderground v.1.15,2013-11-28 11:24:00,
2013-11-28 05:34:00,18.4,15.2,30.47,North,360,0.0,2.0,87,0.00,,,0.00,0,Wunderground v.1.15,2013-11-28 11:34:00,
2013-11-28 05:39:00,18.6,15.4,30.47,North,360,0.0,2.0,87,0.00,,,0.00,0,Wunderground v.1.15,2013-11-28 11:39:00,
2013-11-28 05:49:00,18.6,15.1,30.48,North,360,0.0,0.0,86,0.00,,,0.00,0,Wunderground v.1.15,2013-11-28 11:49:00,
2013-11-28 05:54:00,18.8,15.0,30.48,North,360,0.0,0.0,85,0.00,,,0.00,0,Wunderground v.1.15,2013-11-28 11:54:00,
2013-11-28 06:04:00,18.7,15.2,30.49,ESE,107,0.0,2.0,86,0.00,,,0.00,0,Wunderground v.1.15,2013-11-28 12:04:00,
2013-11-28 06:09:00,18.8,15.0,30.49,ESE,107,0.0,2.0,85,0.00,,,0.00,0,Wunderground v.1.15,2013-11-28 12:09:00,
2013-11-28 06:19:00,18.6,15.1,30.50,ESE,107,0.0,0.0,86,0.00,,,0.00,0,Wunderground v.1.15,2013-11-28 12:19:00,
2013-11-28 06:24:00,18.7,15.5,30.50,East,90,0.0,0.0,87,0.00,,,0.00,0,Wunderground v.1.15,2013-11-28 12:24:00,
2013-11-28 06:34:00,18.7,15.2,30.50,East,90,0.0,0.0,86,0.00,,,0.00,7,Wunderground v.1.15,2013-11-28 12:34:00,
2013-11-28 06:39:00,18.6,15.1,30.51,East,90,0.0,0.0,86,0.00,,,0.00,11,Wunderground v.1.15,2013-11-28 12:39:00,
2013-11-28 06:49:00,18.8,15.6,30.51,East,90,0.0,0.0,87,0.00,,,0.00,14,Wunderground v.1.15,2013-11-28 12:49:00,
2013-11-28 06:59:00,18.8,15.6,30.51,East,90,0.0,0.0,87,0.00,,,0.00,37,Wunderground v.1.15,2013-11-28 12:59:00,
2013-11-28 07:04:00,19.0,15.5,30.51,East,90,0.0,0.0,86,0.00,,,0.00,56,Wunderground v.1.15,2013-11-28 13:04:00,
2013-11-28 07:14:00,20.3,16.0,30.50,NNE,32,2.0,2.0,83,0.00,,,0.00,88,Wunderground v.1.15,2013-11-28 13:14:00,
2013-11-28 07:24:00,21.0,15.8,30.51,NE,46,1.0,2.0,80,0.00,,,0.00,120,Wunderground v.1.15,2013-11-28 13:24:00,
2013-11-28 07:29:00,21.4,15.6,30.51,NE,36,2.0,3.0,78,0.00,,,0.00,137,Wunderground v.1.15,2013-11-28 13:29:00,
2013-11-28 07:39:00,22.5,16.1,30.51,NNE,26,2.0,3.0,76,0.00,,,0.00,179,Wunderground v.1.15,2013-11-28 13:39:00,
2013-11-28 07:44:00,22.9,16.5,30.51,NE,39,3.0,3.0,76,0.00,,,0.00,197,Wunderground v.1.15,2013-11-28 13:44:00,
2013-11-28 07:54:00,23.7,16.6,30.51,North,11,3.0,3.0,74,0.00,,,0.00,227,Wunderground v.1.15,2013-11-28 13:54:00,
2013-11-28 08:04:00,24.5,17.7,30.51,NNE,27,2.0,2.0,75,0.00,,,0.00,258,Wunderground v.1.15,2013-11-28 14:04:00,
2013-11-28 08:09:00,24.6,17.2,30.51,NE,36,3.0,4.0,73,0.00,,,0.00,272,Wunderground v.1.15,2013-11-28 14:09:00,
2013-11-28 08:19:00,25.4,18.3,30.51,ENE,71,3.0,4.0,74,0.00,,,0.00,301,Wunderground v.1.15,2013-11-28 14:19:00,
2013-11-28 08:24:00,25.8,18.0,30.51,ENE,75,2.0,3.0,72,0.00,,,0.00,315,Wunderground v.1.15,2013-11-28 14:24:00,
2013-11-28 08:34:00,26.8,18.7,30.51,East,92,2.0,2.0,71,0.00,,,0.00,339,Wunderground v.1.15,2013-11-28 14:34:00,
2013-11-28 08:39:00,27.0,18.8,30.52,SE,124,2.0,2.0,71,0.00,,,0.00,353,Wunderground v.1.15,2013-11-28 14:39:00,
2013-11-28 08:49:00,27.7,19.5,30.52,SE,127,3.0,5.0,71,0.00,,,0.00,378,Wunderground v.1.15,2013-11-28 14:49:00,
2013-11-28 08:54:00,27.4,18.2,30.52,East,86,3.0,3.0,68,0.00,,,0.00,392,Wunderground v.1.15,2013-11-28 14:54:00,
2013-11-28 09:04:00,28.8,19.9,30.52,East,88,2.0,2.0,69,0.00,,,0.00,415,Wunderground v.1.15,2013-11-28 15:04:00,
2013-11-28 09:09:00,28.9,19.3,30.52,East,79,1.0,2.0,67,0.00,,,0.00,425,Wunderground v.1.15,2013-11-28 15:09:00,
2013-11-28 09:19:00,29.9,20.3,30.52,ENE,73,2.0,2.0,67,0.00,,,0.00,448,Wunderground v.1.15,2013-11-28 15:19:00,
2013-11-28 09:29:00,30.6,19.9,30.52,NE,37,2.0,2.0,64,0.00,,,0.00,469,Wunderground v.1.15,2013-11-28 15:29:00,
2013-11-28 09:39:00,30.5,17.9,30.53,NE,44,2.0,4.0,59,0.00,,,0.00,489,Wunderground v.1.15,2013-11-28 15:39:00,
2013-11-28 09:44:00,31.0,17.1,30.53,NE,51,2.0,2.0,56,0.00,,,0.00,501,Wunderground v.1.15,2013-11-28 15:44:00,
2013-11-28 09:54:00,31.8,17.5,30.53,East,85,2.0,3.0,55,0.00,,,0.00,506,Wunderground v.1.15,2013-11-28 15:54:00,
2013-11-28 09:59:00,32.0,17.2,30.53,NE,36,2.0,3.0,54,0.00,,,0.00,520,Wunderground v.1.15,2013-11-28 15:59:00,
2013-11-28 10:09:00,32.7,17.4,30.53,ENE,60,2.0,2.0,53,0.00,,,0.00,445,Wunderground v.1.15,2013-11-28 16:09:00,
2013-11-28 10:14:00,33.0,18.1,30.53,NE,53,2.0,2.0,54,0.00,,,0.00,566,Wunderground v.1.15,2013-11-28 16:14:00,
2013-11-28 10:24:00,35.0,17.7,30.52,North,360,1.0,2.0,49,0.00,,,0.00,584,Wunderground v.1.15,2013-11-28 16:24:00,
2013-11-28 10:29:00,35.0,17.7,30.52,NE,47,2.0,4.0,49,0.00,,,0.00,605,Wunderground v.1.15,2013-11-28 16:29:00,
2013-11-28 10:39:00,35.1,15.9,30.52,NE,53,2.0,3.0,45,0.00,,,0.00,570,Wunderground v.1.15,2013-11-28 16:39:00,
2013-11-28 10:44:00,35.7,15.9,30.52,East,94,1.0,1.0,44,0.00,,,0.00,601,Wunderground v.1.15,2013-11-28 16:44:00,
2013-11-28 10:54:00,37.6,16.5,30.52,WNW,286,1.0,1.0,42,0.00,,,0.00,610,Wunderground v.1.15,2013-11-28 16:54:00,
2013-11-28 10:59:00,38.2,17.1,30.52,NW,311,2.0,2.0,42,0.00,,,0.00,578,Wunderground v.1.15,2013-11-28 16:59:00,
2013-11-28 11:09:00,37.1,15.5,30.52,ENE,69,2.0,2.0,41,0.00,,,0.00,527,Wunderground v.1.15,2013-11-28 17:09:00,
2013-11-28 11:19:00,38.4,15.6,30.51,NNE,22,2.0,3.0,39,0.00,,,0.00,494,Wunderground v.1.15,2013-11-28 17:19:00,
2013-11-28 11:24:00,38.9,18.3,30.51,West,279,2.0,3.0,43,0.00,,,0.00,517,Wunderground v.1.15,2013-11-28 17:24:00,
2013-11-28 11:34:00,38.3,16.1,30.51,West,265,1.0,1.0,40,0.00,,,0.00,529,Wunderground v.1.15,2013-11-28 17:34:00,
2013-11-28 11:44:00,38.7,15.8,30.50,NNE,31,2.0,2.0,39,0.00,,,0.00,622,Wunderground v.1.15,2013-11-28 17:44:00,
2013-11-28 11:49:00,39.5,17.1,30.50,West,259,1.0,3.0,40,0.00,,,0.00,631,Wunderground v.1.15,2013-11-28 17:49:00,
2013-11-28 11:59:00,40.2,16.6,30.50,NW,318,2.0,3.0,38,0.00,,,0.00,559,Wunderground v.1.15,2013-11-28 17:59:00,
2013-11-28 12:09:00,40.6,16.3,30.50,SW,236,3.0,4.0,37,0.00,,,0.00,462,Wunderground v.1.15,2013-11-28 18:09:00,
2013-11-28 12:14:00,40.3,15.4,30.49,WSW,248,4.0,4.0,36,0.00,,,0.00,466,Wunderground v.1.15,2013-11-28 18:14:00,
2013-11-28 12:24:00,40.8,17.1,30.49,SW,229,1.0,1.0,38,0.00,,,0.00,315,Wunderground v.1.15,2013-11-28 18:24:00,
2013-11-28 12:34:00,40.5,16.2,30.49,West,275,1.0,1.0,37,0.00,,,0.00,332,Wunderground v.1.15,2013-11-28 18:34:00,
2013-11-28 12:39:00,40.9,17.2,30.49,West,275,0.0,1.0,38,0.00,,,0.00,434,Wunderground v.1.15,2013-11-28 18:39:00,
2013-11-28 12:49:00,42.2,18.4,30.48,WSW,237,1.0,2.0,38,0.00,,,0.00,369,Wunderground v.1.15,2013-11-28 18:49:00,
2013-11-28 12:54:00,41.9,18.1,30.48,SSW,213,2.0,3.0,38,0.00,,,0.00,469,Wunderground v.1.15,2013-11-28 18:54:00,
2013-11-28 13:04:00,42.9,20.2,30.49,WSW,249,2.0,4.0,40,0.00,,,0.00,510,Wunderground v.1.15,2013-11-28 19:04:00,
2013-11-28 13:09:00,42.7,17.6,30.49,NW,313,2.0,4.0,36,0.00,,,0.00,475,Wunderground v.1.15,2013-11-28 19:09:00,
2013-11-28 13:19:00,42.7,18.8,30.48,West,277,2.0,2.0,38,0.00,,,0.00,436,Wunderground v.1.15,2013-11-28 19:19:00,
2013-11-28 13:24:00,42.6,17.5,30.48,West,278,2.0,2.0,36,0.00,,,0.00,429,Wunderground v.1.15,2013-11-28 19:24:00,
2013-11-28 13:39:00,43.5,17.6,30.48,NW,315,2.0,2.0,35,0.00,,,0.00,429,Wunderground v.1.15,2013-11-28 19:39:00,
2013-11-28 13:49:00,43.3,16.8,30.48,North,355,1.0,3.0,34,0.00,,,0.00,174,Wunderground v.1.15,2013-11-28 19:49:00,
2013-11-28 13:54:00,43.0,15.8,30.48,West,268,2.0,2.0,33,0.00,,,0.00,271,Wunderground v.1.15,2013-11-28 19:54:00,
2013-11-28 14:04:00,43.1,15.2,30.48,West,271,1.0,1.0,32,0.00,,,0.00,272,Wunderground v.1.15,2013-11-28 20:04:00,
2013-11-28 14:09:00,42.9,15.7,30.48,West,268,1.0,1.0,33,0.00,,,0.00,190,Wunderground v.1.15,2013-11-28 20:09:00,
2013-11-28 14:19:00,43.1,16.6,30.47,WNW,294,1.0,2.0,34,0.00,,,0.00,302,Wunderground v.1.15,2013-11-28 20:19:00,
2013-11-28 14:24:00,43.6,16.3,30.47,West,273,1.0,2.0,33,0.00,,,0.00,364,Wunderground v.1.15,2013-11-28 20:24:00,
2013-11-28 14:34:00,43.3,16.1,30.47,West,269,2.0,2.0,33,0.00,,,0.00,306,Wunderground v.1.15,2013-11-28 20:34:00,
2013-11-28 14:39:00,43.2,16.7,30.47,SW,224,1.0,2.0,34,0.00,,,0.00,141,Wunderground v.1.15,2013-11-28 20:39:00,
2013-11-28 14:49:00,42.6,17.5,30.47,WSW,246,1.0,2.0,36,0.00,,,0.00,79,Wunderground v.1.15,2013-11-28 20:49:00,
2013-11-28 14:59:00,42.7,14.8,30.47,West,269,1.0,2.0,32,0.00,,,0.00,269,Wunderground v.1.15,2013-11-28 20:59:00,
2013-11-28 15:04:00,42.7,16.2,30.47,West,269,1.0,1.0,34,0.00,,,0.00,190,Wunderground v.1.15,2013-11-28 21:04:00,
2013-11-28 15:09:00,42.7,16.9,30.48,West,269,0.0,2.0,35,0.00,,,0.00,216,Wunderground v.1.15,2013-11-28 21:09:00,
2013-11-28 15:19:00,42.7,14.8,30.48,West,270,1.0,1.0,32,0.00,,,0.00,116,Wunderground v.1.15,2013-11-28 21:19:00,
2013-11-28 15:24:00,42.7,17.6,30.48,West,277,1.0,4.0,36,0.00,,,0.00,111,Wunderground v.1.15,2013-11-28 21:24:00,
2013-11-28 15:34:00,42.5,16.1,30.49,WNW,282,1.0,1.0,34,0.00,,,0.00,105,Wunderground v.1.15,2013-11-28 21:34:00,
2013-11-28 15:44:00,42.0,16.9,30.48,West,281,1.0,1.0,36,0.00,,,0.00,54,Wunderground v.1.15,2013-11-28 21:44:00,
2013-11-28 15:49:00,41.6,17.8,30.49,West,281,0.0,2.0,38,0.00,,,0.00,47,Wunderground v.1.15,2013-11-28 21:49:00,
2013-11-28 15:59:00,41.0,16.0,30.49,West,278,1.0,2.0,36,0.00,,,0.00,35,Wunderground v.1.15,2013-11-28 21:59:00,
2013-11-28 16:09:00,40.2,18.3,30.49,West,278,0.0,0.0,41,0.00,,,0.00,30,Wunderground v.1.15,2013-11-28 22:09:00,
2013-11-28 16:19:00,39.4,18.2,30.49,West,278,0.0,0.0,42,0.00,,,0.00,19,Wunderground v.1.15,2013-11-28 22:19:00,
2013-11-28 16:24:00,39.0,17.3,30.49,West,278,0.0,0.0,41,0.00,,,0.00,16,Wunderground v.1.15,2013-11-28 22:24:00,
2013-11-28 16:34:00,37.8,17.8,30.50,West,278,0.0,0.0,44,0.00,,,0.00,7,Wunderground v.1.15,2013-11-28 22:34:00,
2013-11-28 16:44:00,36.5,19.1,30.50,West,278,0.0,0.0,49,0.00,,,0.00,0,Wunderground v.1.15,2013-11-28 22:44:00,
2013-11-28 16:54:00,36.0,18.2,30.50,West,278,0.0,0.0,48,0.00,,,0.00,0,Wunderground v.1.15,2013-11-28 22:54:00,
2013-11-28 16:59:00,35.6,18.3,30.50,West,278,0.0,0.0,49,0.00,,,0.00,0,Wunderground v.1.15,2013-11-28 22:59:00,
2013-11-28 17:09:00,34.5,19.5,30.50,West,278,0.0,0.0,54,0.00,,,0.00,0,Wunderground v.1.15,2013-11-28 23:09:00,
2013-11-28 17:19:00,33.7,18.8,30.50,West,278,0.0,0.0,54,0.00,,,0.00,0,Wunderground v.1.15,2013-11-28 23:19:00,
2013-11-28 17:24:00,33.4,19.4,30.50,West,278,0.0,0.0,56,0.00,,,0.00,0,Wunderground v.1.15,2013-11-28 23:24:00,
2013-11-28 17:34:00,32.6,19.4,30.50,West,278,0.0,0.0,58,0.00,,,0.00,0,Wunderground v.1.15,2013-11-28 23:34:00,
2013-11-28 17:39:00,32.3,19.2,30.50,West,278,0.0,0.0,58,0.00,,,0.00,0,Wunderground v.1.15,2013-11-28 23:39:00,
2013-11-28 17:49:00,31.7,17.8,30.50,West,278,0.0,0.0,56,0.00,,,0.00,0,Wunderground v.1.15,2013-11-28 23:49:00,
2013-11-28 17:59:00,31.3,18.6,30.51,West,278,0.0,0.0,59,0.00,,,0.00,0,Wunderground v.1.15,2013-11-28 23:59:00,
2013-11-28 18:04:00,31.1,18.8,30.51,West,278,0.0,0.0,60,0.00,,,0.00,0,Wunderground v.1.15,2013-11-29 00:04:00,
2013-11-28 18:14:00,30.8,18.5,30.51,West,278,0.0,0.0,60,0.00,,,0.00,0,Wunderground v.1.15,2013-11-29 00:14:00,
2013-11-28 18:24:00,30.6,19.5,30.51,West,278,0.0,0.0,63,0.00,,,0.00,0,Wunderground v.1.15,2013-11-29 00:24:00,
2013-11-28 18:29:00,30.3,19.6,30.51,West,278,0.0,0.0,64,0.00,,,0.00,0,Wunderground v.1.15,2013-11-29 00:29:00,
2013-11-28 18:39:00,30.0,18.5,30.51,West,278,0.0,0.0,62,0.00,,,0.00,0,Wunderground v.1.15,2013-11-29 00:39:00,
2013-11-28 18:49:00,29.7,19.0,30.52,West,278,0.0,0.0,64,0.00,,,0.00,0,Wunderground v.1.15,2013-11-29 00:49:00,
2013-11-28 18:54:00,29.9,19.6,30.52,West,278,0.0,0.0,65,0.00,,,0.00,0,Wunderground v.1.15,2013-11-29 00:54:00,
2013-11-28 19:04:00,29.6,19.6,30.52,West,278,0.0,0.0,66,0.00,,,0.00,0,Wunderground v.1.15,2013-11-29 01:04:00,
2013-11-28 19:14:00,29.4,19.4,30.52,West,278,0.0,0.0,66,0.00,,,0.00,0,Wunderground v.1.15,2013-11-29 01:14:00,
2013-11-28 19:19:00,29.2,19.6,30.52,West,278,0.0,0.0,67,0.00,,,0.00,0,Wunderground v.1.15,2013-11-29 01:19:00,
2013-11-28 19:29:00,29.2,19.6,30.52,West,278,0.0,0.0,67,0.00,,,0.00,0,Wunderground v.1.15,2013-11-29 01:29:00,
2013-11-28 19:39:00,29.1,20.2,30.52,West,278,0.0,0.0,69,0.00,,,0.00,0,Wunderground v.1.15,2013-11-29 01:39:00,
2013-11-28 19:49:00,28.9,20.0,30.53,West,278,0.0,0.0,69,0.00,,,0.00,0,Wunderground v.1.15,2013-11-29 01:49:00,
2013-11-28 19:54:00,28.9,20.3,30.53,West,278,0.0,0.0,70,0.00,,,0.00,0,Wunderground v.1.15,2013-11-29 01:54:00,
2013-11-28 20:04:00,28.7,20.1,30.53,West,278,0.0,0.0,70,0.00,,,0.00,0,Wunderground v.1.15,2013-11-29 02:04:00,
2013-11-28 20:09:00,28.8,19.2,30.53,West,278,0.0,0.0,67,0.00,,,0.00,0,Wunderground v.1.15,2013-11-29 02:09:00,
2013-11-28 20:19:00,28.6,20.1,30.53,West,278,0.0,0.0,70,0.00,,,0.00,0,Wunderground v.1.15,2013-11-29 02:19:00,
2013-11-28 20:24:00,28.6,20.1,30.53,West,278,0.0,0.0,70,0.00,,,0.00,0,Wunderground v.1.15,2013-11-29 02:24:00,
2013-11-28 20:34:00,28.5,18.6,30.53,West,278,0.0,0.0,66,0.00,,,0.00,0,Wunderground v.1.15,2013-11-29 02:34:00,
2013-11-28 20:39:00,28.4,18.5,30.53,West,278,0.0,0.0,66,0.00,,,0.00,0,Wunderground v.1.15,2013-11-29 02:39:00,
2013-11-28 20:49:00,28.3,18.7,30.53,West,278,0.0,0.0,67,0.00,,,0.00,0,Wunderground v.1.15,2013-11-29 02:49:00,
2013-11-28 20:54:00,28.5,18.9,30.53,West,278,0.0,0.0,67,0.00,,,0.00,0,Wunderground v.1.15,2013-11-29 02:54:00,
2013-11-28 21:04:00,28.3,18.4,30.54,West,278,0.0,0.0,66,0.00,,,0.00,0,Wunderground v.1.15,2013-11-29 03:04:00,
2013-11-28 21:09:00,28.3,18.7,30.53,West,278,0.0,0.0,67,0.00,,,0.00,0,Wunderground v.1.15,2013-11-29 03:09:00,
2013-11-28 21:19:00,28.1,19.6,30.52,West,278,0.0,0.0,70,0.00,,,0.00,0,Wunderground v.1.15,2013-11-29 03:19:00,
2013-11-28 21:24:00,28.3,19.1,30.52,West,278,0.0,1.0,68,0.00,,,0.00,0,Wunderground v.1.15,2013-11-29 03:24:00,
2013-11-28 21:34:00,28.1,18.2,30.53,West,278,0.0,0.0,66,0.00,,,0.00,0,Wunderground v.1.15,2013-11-29 03:34:00,
2013-11-28 21:39:00,28.0,18.8,30.53,West,278,0.0,0.0,68,0.00,,,0.00,0,Wunderground v.1.15,2013-11-29 03:39:00,
2013-11-28 21:49:00,28.1,18.9,30.53,West,278,0.0,0.0,68,0.00,,,0.00,0,Wunderground v.1.15,2013-11-29 03:49:00,
2013-11-28 21:59:00,27.8,18.6,30.53,West,278,0.0,0.0,68,0.00,,,0.00,0,Wunderground v.1.15,2013-11-29 03:59:00,
2013-11-28 22:04:00,27.7,18.8,30.53,West,278,0.0,0.0,69,0.00,,,0.00,0,Wunderground v.1.15,2013-11-29 04:04:00,
2013-11-28 22:14:00,27.6,19.1,30.54,West,278,0.0,0.0,70,0.00,,,0.00,0,Wunderground v.1.15,2013-11-29 04:14:00,
2013-11-28 22:24:00,27.5,19.3,30.54,West,278,0.0,0.0,71,0.00,,,0.00,0,Wunderground v.1.15,2013-11-29 04:24:00,
2013-11-28 22:34:00,27.3,19.1,30.54,West,278,0.0,0.0,71,0.00,,,0.00,0,Wunderground v.1.15,2013-11-29 04:34:00,
2013-11-28 22:44:00,27.1,18.9,30.54,West,278,0.0,0.0,71,0.00,,,0.00,0,Wunderground v.1.15,2013-11-29 04:44:00,
2013-11-28 22:49:00,27.1,19.3,30.54,West,278,0.0,0.0,72,0.00,,,0.00,0,Wunderground v.1.15,2013-11-29 04:49:00,
2013-11-28 22:59:00,27.0,19.5,30.55,West,278,0.0,0.0,73,0.00,,,0.00,0,Wunderground v.1.15,2013-11-29 04:59:00,
2013-11-28 23:04:00,27.1,19.9,30.55,West,278,0.0,0.0,74,0.00,,,0.00,0,Wunderground v.1.15,2013-11-29 05:04:00,
2013-11-28 23:09:00,26.9,20.7,30.55,West,278,0.0,0.0,77,0.00,,,0.00,0,Wunderground v.1.15,2013-11-29 05:09:00,
2013-11-28 23:14:00,26.8,19.9,30.55,West,278,0.0,0.0,75,0.00,,,0.00,0,Wunderground v.1.15,2013-11-29 05:14:00,
2013-11-28 23:24:00,26.6,20.4,30.55,West,278,0.0,0.0,77,0.00,,,0.00,0,Wunderground v.1.15,2013-11-29 05:24:00,
2013-11-28 23:34:00,26.7,20.1,30.55,West,278,0.0,0.0,76,0.00,,,0.00,0,Wunderground v.1.15,2013-11-29 05:34:00,
2013-11-28 23:39:00,26.5,20.3,30.55,West,278,0.0,0.0,77,0.00,,,0.00,0,Wunderground v.1.15,2013-11-29 05:39:00,
2013-11-28 23:49:00,26.5,20.3,30.55,West,278,0.0,0.0,77,0.00,,,0.00,0,Wunderground v.1.15,2013-11-29 05:49:00,
2013-11-28 23:54:00,26.5,20.0,30.56,West,278,0.0,0.0,76,0.00,,,0.00,0,Wunderground v.1.15,2013-11-29 05:54:00,